Isle aux Morts, Canada
Current Conditions -  °F | °C
As of 7:00 PM on Wednesday 28 Jan 2015 (Local Time) from CWZB Reporting Station
Drizzle Drizzle  
Wind Chill: 28°   Ceiling: Unl
Heat Index: 34°   Visibility: 0mi
Dew Point: 34°   Wind: 8mph
Humidity: 100%   Direction: 120°ESE
Pressure: 29.68"   Gusts: NA
Location:  47.59°N, 58.97°W
Report Text: CWZB 282200Z AUTO 12007KT M1/4SM -DZ OVC000 01/01 A2968 RMK SLP052 T00130013 70012 WSI/SWOB
Loading
Personal Weather Stations






























Interactive Weather Map New forecast layout! Learn more

10-Day Weather Forecast

Advertisements
Track Severe Weather on mobile